Time;durP1;ratioP1;P1;durP2;ratioP2;P2;SDS_P1;SDS_P2;PMS_P1;PMS_P2;Temp;Humidity;BMP_temperature;BMP_pressure;BME280_temperature;BME280_humidity;BME280_pressure;Samples;Min_cycle;Max_cycle;Signal;HPM_P1;HPM_P2
2022/09/06 00:00:54;;;;;;;2.67;2.50;;;18.00;77.20;;;;;;5008944;28;20131;-62
2022/09/06 00:03:19;;;;;;;3.30;2.70;;;17.90;77.20;;;;;;5008813;28;20457;-61
2022/09/06 00:05:45;;;;;;;4.00;2.63;;;18.00;77.30;;;;;;5009364;28;20053;-62
2022/09/06 00:08:11;;;;;;;2.97;2.78;;;17.90;77.20;;;;;;5010743;28;20037;-62
2022/09/06 00:10:36;;;;;;;3.72;2.38;;;17.90;77.30;;;;;;5007045;28;20049;-62
2022/09/06 00:13:07;;;;;;;2.60;2.38;;;17.90;77.50;;;;;;5012774;28;20086;-64
2022/09/06 00:15:35;;;;;;;2.65;2.35;;;17.90;77.70;;;;;;5008936;28;20049;-62
2022/09/06 00:18:03;;;;;;;2.40;2.22;;;17.90;77.40;;;;;;5013442;28;20068;-62
2022/09/06 00:20:30;;;;;;;3.42;2.35;;;17.90;77.30;;;;;;5008009;28;20462;-62
2022/09/06 00:23:04;;;;;;;2.70;2.30;;;17.90;77.30;;;;;;5009102;28;20034;-62
2022/09/06 00:25:31;;;;;;;3.95;2.13;;;18.00;77.30;;;;;;5005870;28;20041;-61
2022/09/06 00:28:04;;;;;;;2.63;2.35;;;17.90;77.00;;;;;;5005942;28;20048;-62
2022/09/06 00:30:31;;;;;;;2.67;2.42;;;17.90;77.00;;;;;;5006548;28;20128;-62
2022/09/06 00:32:57;;;;;;;4.28;2.40;;;17.90;76.80;;;;;;5010529;28;20041;-62
2022/09/06 00:35:25;;;;;;;2.72;2.53;;;17.90;76.70;;;;;;5007480;28;20702;-62
2022/09/06 00:37:55;;;;;;;2.92;2.70;;;17.80;76.80;;;;;;5008753;28;20648;-62
2022/09/06 00:40:20;;;;;;;3.90;2.40;;;17.80;76.90;;;;;;5008891;28;20095;-62
2022/09/06 00:42:46;;;;;;;3.72;2.40;;;17.80;77.20;;;;;;5006303;28;20045;-62
2022/09/06 00:45:12;;;;;;;2.63;2.25;;;17.70;77.30;;;;;;5009003;28;20046;-62
2022/09/06 00:47:40;;;;;;;5.85;2.72;;;17.70;77.50;;;;;;5006935;28;20532;-62
2022/09/06 00:50:08;;;;;;;3.67;2.55;;;17.60;77.50;;;;;;5007834;28;20069;-62
2022/09/06 00:52:35;;;;;;;3.22;2.58;;;17.70;77.50;;;;;;5004897;28;20036;-62
2022/09/06 00:55:01;;;;;;;2.92;2.65;;;17.70;77.60;;;;;;5008189;28;20445;-60
2022/09/06 00:57:29;;;;;;;2.75;2.55;;;17.70;77.30;;;;;;5007335;28;20307;-62
2022/09/06 00:59:55;;;;;;;3.45;2.53;;;17.60;77.30;;;;;;5008338;28;20116;-62
2022/09/06 01:02:21;;;;;;;2.95;2.35;;;17.60;77.50;;;;;;5012593;28;20049;-62
2022/09/06 01:04:50;;;;;;;3.63;2.35;;;17.60;77.50;;;;;;5007463;28;20037;-62
2022/09/06 01:07:46;;;;;;;3.53;2.35;;;17.60;77.70;;;;;;5008295;28;20045;-62
2022/09/06 01:11:07;;;;;;;2.92;2.10;;;17.60;78.40;;;;;;5009190;28;20099;-62
2022/09/06 01:13:51;;;;;;;2.33;2.13;;;17.60;78.30;;;;;;4995144;28;20509;-62
2022/09/06 01:16:41;;;;;;;2.60;2.40;;;17.60;77.30;;;;;;5006612;28;20297;-62
2022/09/06 01:19:31;;;;;;;3.75;2.33;;;17.60;78.00;;;;;;5012686;28;20299;-63
2022/09/06 01:22:31;;;;;;;3.03;2.00;;;17.60;78.00;;;;;;5028164;28;20037;-62
2022/09/06 01:25:09;;;;;;;4.15;2.72;;;17.50;78.00;;;;;;5025480;28;20540;-62
2022/09/06 01:28:01;;;;;;;2.60;2.30;;;17.50;77.30;;;;;;5024568;28;20033;-61
2022/09/06 01:30:29;;;;;;;2.72;2.38;;;17.50;77.80;;;;;;5025393;28;20578;-61
2022/09/06 01:33:12;;;;;;;3.00;2.00;;;17.40;77.30;;;;;;5027136;28;20076;-61
2022/09/06 01:35:56;;;;;;;3.22;2.15;;;17.40;78.20;;;;;;5025680;28;20034;-62
2022/09/06 01:38:22;;;;;;;5.80;2.45;;;17.40;78.50;;;;;;5027558;28;20033;-62
2022/09/06 01:40:47;;;;;;;2.55;2.30;;;17.40;78.10;;;;;;5025505;28;20078;-62
2022/09/06 01:43:22;;;;;;;2.67;2.47;;;17.40;78.20;;;;;;5027773;28;20037;-62
2022/09/06 01:46:00;;;;;;;6.25;2.40;;;17.50;78.40;;;;;;5025489;28;20365;-60
2022/09/06 01:48:47;;;;;;;2.45;2.25;;;17.40;77.90;;;;;;5023507;28;20048;-62
2022/09/06 01:51:32;;;;;;;2.53;2.33;;;17.40;78.00;;;;;;5028361;28;20064;-62
2022/09/06 01:54:00;;;;;;;3.20;2.60;;;17.40;78.40;;;;;;5025521;28;20041;-61
2022/09/06 01:56:36;;;;;;;3.75;2.60;;;17.40;78.20;;;;;;5023664;28;20033;-61
2022/09/06 01:59:32;;;;;;;4.28;2.63;;;17.40;78.60;;;;;;5026811;28;20567;-61
2022/09/06 02:02:08;;;;;;;3.10;2.50;;;17.30;79.30;;;;;;5025283;28;20048;-62
2022/09/06 02:05:00;;;;;;;2.83;2.63;;;17.30;78.70;;;;;;5023336;28;20040;-61
2022/09/06 02:07:28;;;;;;;3.97;2.75;;;17.30;78.80;;;;;;5025053;28;20048;-60
2022/09/06 02:10:07;;;;;;;4.38;2.78;;;17.30;78.40;;;;;;5027266;28;20037;-62
2022/09/06 02:12:38;;;;;;;3.40;2.97;;;17.30;79.10;;;;;;5027041;28;20937;-62
2022/09/06 02:15:25;;;;;;;3.95;3.30;;;17.30;78.90;;;;;;5029694;28;20116;-62
2022/09/06 02:18:17;;;;;;;6.13;4.28;;;17.30;79.40;;;;;;5029841;28;20124;-63
2022/09/06 02:20:49;;;;;;;4.50;3.60;;;17.30;80.00;;;;;;5009430;28;20038;-61
2022/09/06 02:23:16;;;;;;;4.00;3.60;;;17.30;79.40;;;;;;5008719;28;20045;-62
2022/09/06 02:25:49;;;;;;;4.28;3.05;;;17.30;79.40;;;;;;5008252;28;20091;-62
2022/09/06 02:28:16;;;;;;;3.92;3.30;;;17.30;79.80;;;;;;5011065;28;20133;-61
2022/09/06 02:30:47;;;;;;;4.40;3.60;;;17.20;79.60;;;;;;5005219;28;20061;-62
2022/09/06 02:33:18;;;;;;;6.13;3.40;;;17.20;79.70;;;;;;5014803;28;20045;-62
2022/09/06 02:35:46;;;;;;;3.80;3.15;;;17.20;79.80;;;;;;5010745;28;20091;-61
2022/09/06 02:38:12;;;;;;;3.80;2.80;;;17.20;79.80;;;;;;5012466;28;20049;-60
2022/09/06 02:40:38;;;;;;;3.63;3.10;;;17.20;79.80;;;;;;5008408;28;20056;-62
2022/09/06 02:43:04;;;;;;;3.72;2.50;;;17.30;79.80;;;;;;5009825;28;20026;-61
2022/09/06 02:45:30;;;;;;;3.20;2.70;;;17.30;79.60;;;;;;5008250;28;20057;-61
2022/09/06 02:47:55;;;;;;;2.80;2.60;;;17.30;79.50;;;;;;5010816;28;20092;-62
2022/09/06 02:50:21;;;;;;;3.88;2.70;;;17.30;79.30;;;;;;5011463;28;20045;-62
2022/09/06 02:53:03;;;;;;;2.97;2.65;;;17.30;79.20;;;;;;5007037;28;20145;-62
2022/09/06 02:55:29;;;;;;;3.88;3.15;;;17.30;79.60;;;;;;5008344;28;20050;-62
2022/09/06 02:57:54;;;;;;;3.78;3.10;;;17.30;79.20;;;;;;5007836;28;20100;-62
2022/09/06 03:00:20;;;;;;;2.70;2.50;;;17.30;79.30;;;;;;5009389;28;20506;-61
2022/09/06 03:02:46;;;;;;;3.03;2.75;;;17.20;79.40;;;;;;5010017;28;20049;-62
2022/09/06 03:05:12;;;;;;;2.90;2.70;;;17.30;79.70;;;;;;5009875;28;20415;-62
2022/09/06 03:07:37;;;;;;;2.97;2.78;;;17.30;79.80;;;;;;5007191;28;20042;-61
2022/09/06 03:10:04;;;;;;;3.15;2.90;;;17.30;79.80;;;;;;5010029;28;20096;-62
2022/09/06 03:12:30;;;;;;;8.93;2.95;;;17.30;79.80;;;;;;5007550;28;20077;-62
2022/09/06 03:14:55;;;;;;;3.33;3.03;;;17.40;80.00;;;;;;5009354;28;20038;-63
2022/09/06 03:17:21;;;;;;;4.45;2.97;;;17.40;79.90;;;;;;5011125;28;20497;-61
2022/09/06 03:19:47;;;;;;;3.45;2.92;;;17.40;79.80;;;;;;5011009;28;20053;-61
2022/09/06 03:22:12;;;;;;;3.08;2.70;;;17.50;79.70;;;;;;5006883;28;20197;-62
2022/09/06 03:24:38;;;;;;;4.10;2.95;;;17.50;79.40;;;;;;5008182;28;20409;-62
2022/09/06 03:27:04;;;;;;;3.70;3.40;;;17.40;79.30;;;;;;5006990;28;20532;-61
2022/09/06 03:29:29;;;;;;;3.58;3.28;;;17.50;79.20;;;;;;5007085;28;20046;-63
2022/09/06 03:31:55;;;;;;;3.45;3.15;;;17.50;79.10;;;;;;5006090;28;20037;-61
2022/09/06 03:34:20;;;;;;;3.50;3.10;;;17.50;79.10;;;;;;5011848;28;20033;-62
2022/09/06 03:36:46;;;;;;;5.15;3.05;;;17.50;79.10;;;;;;5008508;28;20072;-62
2022/09/06 03:39:12;;;;;;;3.72;3.08;;;17.40;79.10;;;;;;5009700;28;20137;-62
2022/09/06 03:41:37;;;;;;;3.60;3.25;;;17.40;79.20;;;;;;5010062;28;20035;-61
2022/09/06 03:44:04;;;;;;;3.58;3.05;;;17.40;79.40;;;;;;5007829;28;20088;-63
2022/09/06 03:46:29;;;;;;;3.28;3.03;;;17.40;79.60;;;;;;5010668;28;20056;-62
2022/09/06 03:48:56;;;;;;;6.05;3.83;;;17.40;79.60;;;;;;5011631;28;20045;-62
2022/09/06 03:51:22;;;;;;;5.60;4.70;;;17.40;79.60;;;;;;5007940;28;20430;-62
2022/09/06 03:53:47;;;;;;;6.50;4.15;;;17.40;79.40;;;;;;5010634;28;20128;-62
2022/09/06 03:56:13;;;;;;;9.25;4.50;;;17.40;79.40;;;;;;5011953;28;20168;-62
2022/09/06 03:58:39;;;;;;;5.30;4.05;;;17.40;79.40;;;;;;5007869;28;20568;-60
2022/09/06 04:01:08;;;;;;;5.20;3.78;;;17.40;79.40;;;;;;5012858;28;20033;-62
2022/09/06 04:03:34;;;;;;;4.68;4.20;;;17.40;79.60;;;;;;5011077;28;20398;-61
2022/09/06 04:06:00;;;;;;;7.20;4.50;;;17.40;79.60;;;;;;5013176;28;20049;-62
2022/09/06 04:08:26;;;;;;;4.22;3.83;;;17.40;79.60;;;;;;5009880;28;20112;-61
2022/09/06 04:10:58;;;;;;;8.05;4.15;;;17.40;79.70;;;;;;5015237;28;20493;-61
2022/09/06 04:13:25;;;;;;;5.22;4.72;;;17.40;80.20;;;;;;5010148;28;20552;-62
2022/09/06 04:15:51;;;;;;;6.22;4.30;;;17.40;80.00;;;;;;5008364;28;20034;-63
2022/09/06 04:18:18;;;;;;;5.18;4.40;;;17.40;80.10;;;;;;5008803;28;20056;-61
2022/09/06 04:20:48;;;;;;;5.47;4.85;;;17.30;80.30;;;;;;5008765;28;20065;-61
2022/09/06 04:23:14;;;;;;;5.68;4.45;;;17.30;81.00;;;;;;5010331;28;20532;-61
2022/09/06 04:25:40;;;;;;;5.35;4.28;;;17.30;81.00;;;;;;5010167;28;20041;-62
2022/09/06 04:28:05;;;;;;;5.47;4.15;;;17.20;81.30;;;;;;5005696;28;20477;-62
2022/09/06 04:30:31;;;;;;;5.90;4.78;;;17.20;81.40;;;;;;4999144;28;20041;-62
2022/09/06 04:32:57;;;;;;;5.40;4.70;;;17.20;81.50;;;;;;4996837;28;20037;-62
2022/09/06 04:35:22;;;;;;;9.52;5.93;;;17.30;81.80;;;;;;5003322;28;20207;-63
2022/09/06 04:37:48;;;;;;;10.43;4.90;;;17.20;82.10;;;;;;5002861;28;20038;-60
2022/09/06 04:40:14;;;;;;;4.20;3.80;;;17.20;82.90;;;;;;5008156;28;20041;-61
2022/09/06 04:42:39;;;;;;;5.82;3.65;;;17.10;82.10;;;;;;5006540;28;20033;-62
2022/09/06 04:45:05;;;;;;;4.32;3.70;;;17.10;82.20;;;;;;5011742;28;20037;-61
2022/09/06 04:47:31;;;;;;;6.05;4.35;;;17.00;82.20;;;;;;5009854;28;20783;-61
2022/09/06 04:49:57;;;;;;;4.35;4.00;;;16.90;82.90;;;;;;5010655;28;20034;-62
2022/09/06 04:52:22;;;;;;;4.13;3.72;;;16.80;83.00;;;;;;5011903;28;20037;-62
2022/09/06 04:54:48;;;;;;;3.90;3.53;;;16.70;83.00;;;;;;5013196;28;20112;-60
2022/09/06 04:57:13;;;;;;;3.67;3.38;;;16.70;83.40;;;;;;5008784;28;20106;-58
2022/09/06 04:59:39;;;;;;;4.28;3.90;;;16.70;83.60;;;;;;5008747;28;20403;-61
2022/09/06 05:02:04;;;;;;;4.50;3.78;;;16.70;83.70;;;;;;5009231;28;20038;-61
2022/09/06 05:04:30;;;;;;;4.90;3.53;;;16.70;83.80;;;;;;5008206;28;20044;-62
2022/09/06 05:07:03;;;;;;;3.88;3.45;;;16.80;83.90;;;;;;5010575;28;20095;-62
2022/09/06 05:09:30;;;;;;;3.92;3.60;;;16.80;84.00;;;;;;5010820;28;20041;-62
2022/09/06 05:11:56;;;;;;;4.43;4.03;;;16.80;83.70;;;;;;5009360;28;20045;-60
2022/09/06 05:14:22;;;;;;;5.22;3.72;;;16.90;83.60;;;;;;5010483;28;20095;-60
2022/09/06 05:16:48;;;;;;;5.20;4.10;;;16.90;83.60;;;;;;5010488;28;20065;-61
2022/09/06 05:19:15;;;;;;;4.22;3.83;;;16.90;83.60;;;;;;5008547;28;20133;-61
2022/09/06 05:21:40;;;;;;;5.15;4.00;;;17.00;83.60;;;;;;5006517;28;20087;-60
2022/09/06 05:24:06;;;;;;;6.43;4.13;;;17.00;83.70;;;;;;5007171;28;20045;-61
2022/09/06 05:26:31;;;;;;;4.05;3.75;;;17.10;83.80;;;;;;5010767;28;20576;-62
2022/09/06 05:28:57;;;;;;;4.28;3.88;;;17.10;83.70;;;;;;5009693;28;20052;-62
2022/09/06 05:31:28;;;;;;;5.38;4.10;;;17.10;83.60;;;;;;5008129;28;20037;-60
2022/09/06 05:33:56;;;;;;;3.78;3.47;;;17.10;83.80;;;;;;5006953;28;20097;-62
2022/09/06 05:36:22;;;;;;;4.40;3.85;;;17.20;83.60;;;;;;5012597;28;20053;-60
2022/09/06 05:38:52;;;;;;;4.18;3.85;;;17.30;83.60;;;;;;5008870;28;20501;-62
2022/09/06 05:41:18;;;;;;;4.32;3.92;;;17.30;83.70;;;;;;5008503;28;20471;-61
2022/09/06 05:43:44;;;;;;;5.60;3.85;;;17.30;83.50;;;;;;5010642;28;20045;-61
2022/09/06 05:46:10;;;;;;;6.72;4.20;;;17.40;83.30;;;;;;5013636;28;20045;-61
2022/09/06 05:48:36;;;;;;;6.75;4.03;;;17.40;82.90;;;;;;5010665;28;20045;-62
2022/09/06 05:51:07;;;;;;;6.75;4.55;;;17.40;82.80;;;;;;5009382;28;20045;-62
2022/09/06 05:53:37;;;;;;;6.85;4.32;;;17.40;82.90;;;;;;5008374;28;20041;-61
2022/09/06 05:56:04;;;;;;;8.38;5.32;;;17.50;83.00;;;;;;5008264;28;20153;-62
2022/09/06 05:58:30;;;;;;;6.13;5.53;;;17.50;82.90;;;;;;5007342;28;20050;-61
2022/09/06 06:01:14;;;;;;;9.05;5.32;;;17.50;82.90;;;;;;5005277;28;20103;-60
2022/09/06 06:03:39;;;;;;;5.25;4.32;;;17.50;83.40;;;;;;5005766;28;20052;-62
2022/09/06 06:06:05;;;;;;;6.90;4.82;;;17.50;83.00;;;;;;5007715;28;20242;-62
2022/09/06 06:08:31;;;;;;;8.65;5.53;;;17.60;83.10;;;;;;5011597;28;20030;-62
2022/09/06 06:11:01;;;;;;;6.05;4.65;;;17.70;83.30;;;;;;5010518;28;20409;-61
2022/09/06 06:13:28;;;;;;;6.30;4.60;;;17.70;83.60;;;;;;5008485;28;20038;-61
2022/09/06 06:15:54;;;;;;;5.78;4.20;;;17.70;83.30;;;;;;5006253;28;20697;-62
2022/09/06 06:18:20;;;;;;;5.40;4.93;;;17.80;83.40;;;;;;5007893;28;20050;-62
2022/09/06 06:20:45;;;;;;;8.52;5.13;;;17.80;83.40;;;;;;5009317;28;20058;-61
2022/09/06 06:23:13;;;;;;;8.13;5.75;;;17.90;83.40;;;;;;5011571;28;20065;-61
2022/09/06 06:25:39;;;;;;;8.00;5.43;;;17.90;83.40;;;;;;5009231;28;20600;-62
2022/09/06 06:28:04;;;;;;;5.82;4.95;;;18.00;83.40;;;;;;5009615;28;20037;-60
2022/09/06 06:30:30;;;;;;;6.20;4.90;;;18.00;83.30;;;;;;5007988;28;20520;-61
2022/09/06 06:32:57;;;;;;;8.82;5.65;;;18.10;83.20;;;;;;5008662;28;20041;-61
2022/09/06 06:35:24;;;;;;;8.52;5.65;;;18.20;83.10;;;;;;5004727;28;20273;-63
2022/09/06 06:37:49;;;;;;;7.90;5.50;;;18.20;83.30;;;;;;5008462;28;20052;-63
2022/09/06 06:40:15;;;;;;;6.18;5.13;;;18.30;83.20;;;;;;5011055;28;20045;-62
2022/09/06 06:42:41;;;;;;;11.05;5.28;;;18.40;83.30;;;;;;5007409;28;20045;-61
2022/09/06 06:45:07;;;;;;;9.15;4.72;;;18.40;83.30;;;;;;5008546;28;20036;-61
2022/09/06 06:47:32;;;;;;;5.55;4.32;;;18.40;83.40;;;;;;5008855;28;20497;-61
2022/09/06 06:49:58;;;;;;;11.40;5.30;;;18.50;83.60;;;;;;5011452;28;20041;-60
2022/09/06 06:52:24;;;;;;;9.38;4.65;;;18.60;83.80;;;;;;5008806;28;20041;-62
2022/09/06 06:54:50;;;;;;;8.32;4.57;;;18.70;83.80;;;;;;5007460;28;20042;-62
2022/09/06 06:57:15;;;;;;;7.95;5.07;;;18.70;83.60;;;;;;5014792;28;20045;-61
2022/09/06 06:59:41;;;;;;;10.20;4.82;;;18.80;83.50;;;;;;5009106;28;20600;-62
2022/09/06 07:02:07;;;;;;;5.60;5.10;;;18.90;83.60;;;;;;5010540;28;20038;-62
2022/09/06 07:04:32;;;;;;;8.40;4.45;;;18.90;83.60;;;;;;5012444;28;20382;-62
2022/09/06 07:06:58;;;;;;;8.75;4.78;;;19.00;83.30;;;;;;5010840;28;20043;-62
2022/09/06 07:09:24;;;;;;;6.28;4.35;;;19.10;83.40;;;;;;5014521;28;20648;-62
2022/09/06 07:11:51;;;;;;;6.90;4.53;;;19.20;83.50;;;;;;5012009;28;20033;-61
2022/09/06 07:14:17;;;;;;;7.35;4.60;;;19.30;83.50;;;;;;5010170;28;20465;-62
2022/09/06 07:16:43;;;;;;;8.15;4.57;;;19.30;83.40;;;;;;5012503;28;20113;-56
2022/09/06 07:19:08;;;;;;;6.20;4.20;;;19.40;83.30;;;;;;5009838;28;20041;-62
2022/09/06 07:21:34;;;;;;;7.63;4.32;;;19.50;83.20;;;;;;5011825;28;20413;-61
2022/09/06 07:24:00;;;;;;;6.20;4.50;;;19.60;83.10;;;;;;5010058;28;20691;-62
2022/09/06 07:26:29;;;;;;;7.90;4.50;;;19.70;82.90;;;;;;5010849;28;20061;-62
2022/09/06 07:29:00;;;;;;;6.15;4.78;;;19.80;83.10;;;;;;5009831;28;20042;-61
2022/09/06 07:31:27;;;;;;;6.18;4.53;;;19.90;82.90;;;;;;5014159;28;20187;-62
2022/09/06 07:33:53;;;;;;;5.40;4.15;;;20.00;83.70;;;;;;5014029;28;20128;-62
2022/09/06 07:36:18;;;;;;;5.28;4.18;;;20.00;82.70;;;;;;5010259;28;20030;-62
2022/09/06 07:38:48;;;;;;;5.15;3.72;;;20.10;82.40;;;;;;5008748;28;20065;-62
2022/09/06 07:41:16;;;;;;;6.32;4.00;;;20.20;82.50;;;;;;5011291;28;20510;-62
2022/09/06 07:43:42;;;;;;;5.53;3.50;;;20.30;82.40;;;;;;5013060;28;20046;-61
2022/09/06 07:46:10;;;;;;;5.53;3.30;;;20.50;82.30;;;;;;5009122;28;20616;-62
2022/09/06 07:48:38;;;;;;;6.00;2.90;;;20.60;82.40;;;;;;5008799;28;20038;-62
2022/09/06 07:51:16;;;;;;;4.57;2.80;;;20.70;81.90;;;;;;5018320;28;20793;-60
2022/09/06 07:53:43;;;;;;;6.35;2.08;;;20.80;82.00;;;;;;5018879;28;20033;-62
2022/09/06 07:56:11;;;;;;;3.30;1.70;;;20.90;81.30;;;;;;5009748;28;20469;-62
2022/09/06 07:58:38;;;;;;;2.78;1.45;;;21.00;80.30;;;;;;5005357;28;20034;-60
2022/09/06 08:01:13;;;;;;;4.50;1.40;;;21.20;80.00;;;;;;5007147;28;20485;-62
2022/09/06 08:03:38;;;;;;;;;;;21.30;79.00;;;;;;5008730;28;20112;-61
2022/09/06 08:06:04;;;;;;;2.20;1.70;;;21.40;79.50;;;;;;5006637;28;20360;-61
2022/09/06 08:08:30;;;;;;;4.57;1.80;;;21.50;79.10;;;;;;5008327;28;20042;-61
2022/09/06 08:10:55;;;;;;;4.10;1.70;;;21.60;78.80;;;;;;5009181;28;20061;-61
2022/09/06 08:13:21;;;;;;;5.53;2.00;;;21.70;78.50;;;;;;5010795;28;20615;-62
2022/09/06 08:15:46;;;;;;;3.85;1.70;;;21.80;78.10;;;;;;5010700;28;20030;-62
2022/09/06 08:18:12;;;;;;;7.55;1.80;;;21.90;77.90;;;;;;5011672;28;20128;-62
2022/09/06 08:20:38;;;;;;;6.45;1.75;;;22.00;77.90;;;;;;5010134;28;20042;-62
2022/09/06 08:23:10;;;;;;;6.15;1.50;;;22.10;77.70;;;;;;5010599;28;20033;-62
2022/09/06 08:25:35;;;;;;;6.95;1.70;;;22.20;76.80;;;;;;5010916;28;20068;-63
2022/09/06 08:28:01;;;;;;;6.45;1.80;;;22.30;76.80;;;;;;5008887;28;20065;-62
2022/09/06 08:30:28;;;;;;;2.72;1.70;;;22.40;76.60;;;;;;5010470;28;20049;-62
2022/09/06 08:32:55;;;;;;;4.97;1.50;;;22.50;76.70;;;;;;5006787;28;20503;-62
2022/09/06 08:35:21;;;;;;;4.43;1.60;;;22.60;76.10;;;;;;5009607;28;20258;-62
2022/09/06 08:37:46;;;;;;;5.28;1.75;;;22.70;75.60;;;;;;5011199;28;20545;-62
2022/09/06 08:40:18;;;;;;;4.00;1.80;;;22.70;75.10;;;;;;5010167;28;20053;-62
2022/09/06 08:42:44;;;;;;;4.13;1.55;;;22.80;75.10;;;;;;5008156;28;20509;-61
2022/09/06 08:45:17;;;;;;;6.47;2.20;;;22.90;74.50;;;;;;5010521;28;20049;-62
2022/09/06 08:47:43;;;;;;;3.30;1.67;;;23.00;73.20;;;;;;5009733;28;20042;-62
2022/09/06 08:50:10;;;;;;;5.03;1.50;;;23.10;73.30;;;;;;5009611;28;22125;-62
2022/09/06 08:52:35;;;;;;;3.58;1.50;;;23.20;73.20;;;;;;5008250;28;20585;-63
2022/09/06 08:55:29;;;;;;;5.53;1.67;;;23.20;72.80;;;;;;5012171;28;20079;-62
2022/09/06 08:58:21;;;;;;;4.07;1.48;;;23.40;72.10;;;;;;5010964;28;20038;-62
2022/09/06 09:00:57;;;;;;;2.88;1.73;;;23.50;72.20;;;;;;5010405;28;20040;-60
2022/09/06 09:03:38;;;;;;;2.78;1.40;;;23.60;71.70;;;;;;5008506;28;20042;-63
2022/09/06 09:06:06;;;;;;;3.88;1.40;;;23.60;71.50;;;;;;5008110;28;20049;-63
2022/09/06 09:09:08;;;;;;;1.88;1.50;;;23.80;72.00;;;;;;5010216;28;20448;-63
2022/09/06 09:11:35;;;;;;;2.00;1.65;;;23.80;71.50;;;;;;4997061;28;20045;-63
2022/09/06 09:14:21;;;;;;;3.90;1.40;;;24.00;71.90;;;;;;5007988;28;20128;-63
2022/09/06 09:16:52;;;;;;;5.75;1.60;;;24.10;71.00;;;;;;5007858;28;20042;-63
2022/09/06 09:19:17;;;;;;;4.45;1.75;;;24.10;71.40;;;;;;5008870;28;20034;-62
2022/09/06 09:21:43;;;;;;;8.18;1.70;;;24.30;70.90;;;;;;5007839;28;20383;-63
2022/09/06 09:24:12;;;;;;;6.07;1.65;;;24.30;70.70;;;;;;5007651;28;20552;-62
2022/09/06 09:27:11;;;;;;;4.85;1.70;;;24.50;70.40;;;;;;5009490;28;20131;-63
2022/09/06 09:29:52;;;;;;;6.00;1.38;;;24.60;69.50;;;;;;5008320;28;20037;-62
2022/09/06 09:32:35;;;;;;;4.18;1.38;;;24.70;69.20;;;;;;5010566;28;20056;-63
2022/09/06 09:35:22;;;;;;;1.85;1.42;;;24.80;69.00;;;;;;5028059;28;20568;-62
2022/09/06 09:37:55;;;;;;;3.40;1.60;;;24.90;68.80;;;;;;5030669;28;20029;-61
2022/09/06 09:40:24;;;;;;;2.40;1.40;;;25.00;69.70;;;;;;5028644;28;20378;-63
2022/09/06 09:42:50;;;;;;;3.85;1.20;;;25.00;68.30;;;;;;5028377;28;20168;-63
2022/09/06 09:45:24;;;;;;;5.68;1.98;;;25.10;68.50;;;;;;5031360;28;20131;-62
2022/09/06 09:47:50;;;;;;;5.68;1.60;;;25.10;68.30;;;;;;5029027;28;20420;-62
2022/09/06 09:50:31;;;;;;;8.35;1.90;;;25.20;68.90;;;;;;5029753;28;20045;-62
2022/09/06 09:53:09;;;;;;;4.35;1.52;;;25.30;68.00;;;;;;5027561;28;20083;-63
2022/09/06 09:55:35;;;;;;;5.35;1.52;;;25.40;67.90;;;;;;5027667;28;20041;-62
2022/09/06 09:58:00;;;;;;;5.03;1.60;;;25.50;68.40;;;;;;5028042;28;20536;-62
2022/09/06 10:00:38;;;;;;;4.97;1.77;;;25.60;68.60;;;;;;5030775;28;20144;-63
2022/09/06 10:03:26;;;;;;;4.43;1.33;;;25.60;68.00;;;;;;5027332;28;20207;-63
2022/09/06 10:05:57;;;;;;;2.35;1.33;;;25.70;67.60;;;;;;5031146;28;20508;-62
2022/09/06 10:08:25;;;;;;;3.80;1.65;;;25.80;67.10;;;;;;5031754;28;20103;-62
2022/09/06 10:10:50;;;;;;;4.40;1.48;;;25.90;68.30;;;;;;5028985;28;20497;-62
2022/09/06 10:13:29;;;;;;;7.03;1.38;;;25.90;66.80;;;;;;5029775;28;20078;-63
2022/09/06 10:15:57;;;;;;;6.03;1.50;;;26.00;66.60;;;;;;5031413;28;20033;-62
2022/09/06 10:18:33;;;;;;;7.07;1.73;;;26.00;66.30;;;;;;5030927;28;20050;-62
2022/09/06 10:21:08;;;;;;;8.95;1.90;;;26.00;65.10;;;;;;5028918;28;20390;-63
2022/09/06 10:23:36;;;;;;;;;;;26.10;65.70;;;;;;5010997;28;20033;-63
2022/09/06 10:26:10;;;;;;;4.28;1.50;;;26.10;66.00;;;;;;5012579;28;19948;-61
2022/09/06 10:28:42;;;;;;;;;;;26.10;65.40;;;;;;5010505;28;20045;-61
2022/09/06 10:31:17;;;;;;;4.88;1.40;;;26.20;66.10;;;;;;5014161;28;19917;-63
2022/09/06 10:34:01;;;;;;;3.53;1.52;;;26.20;65.40;;;;;;5012822;28;20521;-62
2022/09/06 10:36:38;;;;;;;2.83;1.50;;;26.20;64.00;;;;;;5012169;28;20146;-63
2022/09/06 10:39:27;;;;;;;4.32;1.48;;;26.20;64.20;;;;;;5014222;28;20125;-62
2022/09/06 10:42:06;;;;;;;10.13;1.73;;;26.20;64.30;;;;;;5013253;28;20033;-61
2022/09/06 10:45:07;;;;;;;4.70;1.60;;;26.30;64.50;;;;;;5015342;28;20533;-63
2022/09/06 10:47:57;;;;;;;5.72;1.83;;;26.30;64.00;;;;;;5015459;28;20045;-63
2022/09/06 10:50:50;;;;;;;5.65;2.03;;;26.30;64.00;;;;;;5012271;28;20163;-63
2022/09/06 10:53:23;;;;;;;3.72;1.65;;;26.40;64.30;;;;;;5014766;28;20106;-63
2022/09/06 10:56:11;;;;;;;4.25;1.90;;;26.40;64.00;;;;;;5013002;28;20046;-63
2022/09/06 10:58:47;;;;;;;6.15;1.90;;;26.50;64.20;;;;;;5015558;28;20096;-62
2022/09/06 11:01:33;;;;;;;8.70;2.22;;;26.50;63.10;;;;;;5013959;28;20042;-62
2022/09/06 11:03:59;;;;;;;5.97;1.80;;;26.60;63.20;;;;;;5014808;28;20133;-61
2022/09/06 11:06:33;;;;;;;6.47;1.98;;;26.60;64.40;;;;;;5015243;28;20501;-63
2022/09/06 11:09:12;;;;;;;8.23;1.92;;;26.70;63.10;;;;;;5012173;28;20056;-62
2022/09/06 11:12:01;;;;;;;7.15;1.95;;;26.70;64.10;;;;;;5011252;28;20038;-63
2022/09/06 11:14:27;;;;;;;5.18;2.10;;;26.80;62.50;;;;;;5013995;28;20516;-63
2022/09/06 11:17:05;;;;;;;4.32;1.70;;;26.80;63.00;;;;;;5012523;28;20056;-63
2022/09/06 11:19:57;;;;;;;9.60;2.25;;;26.90;62.20;;;;;;5010181;28;20052;-63
2022/09/06 11:22:38;;;;;;;4.55;1.92;;;26.90;61.90;;;;;;5019820;28;20306;-64
2022/09/06 11:25:10;;;;;;;6.50;1.90;;;26.90;62.60;;;;;;5033873;28;20041;-63
2022/09/06 11:27:39;;;;;;;6.18;2.15;;;26.90;63.00;;;;;;5033863;28;20044;-63
2022/09/06 11:30:05;;;;;;;8.10;2.03;;;26.90;63.00;;;;;;5029727;28;20041;-63
2022/09/06 11:32:38;;;;;;;7.05;2.08;;;26.90;63.40;;;;;;5033358;28;20045;-62
2022/09/06 11:35:08;;;;;;;7.97;2.13;;;26.90;63.20;;;;;;5034653;28;20049;-63
2022/09/06 11:37:42;;;;;;;7.65;2.10;;;26.90;62.60;;;;;;5034633;28;20045;-64
2022/09/06 11:40:22;;;;;;;11.75;1.95;;;26.90;62.00;;;;;;5034100;28;20037;-64
2022/09/06 11:42:47;;;;;;;5.03;1.77;;;27.00;62.60;;;;;;5034230;28;20525;-62
2022/09/06 11:45:20;;;;;;;6.32;1.80;;;27.00;62.60;;;;;;5033854;28;20052;-63
2022/09/06 11:47:51;;;;;;;6.47;2.10;;;27.00;61.60;;;;;;5033941;28;20620;-64
2022/09/06 11:50:19;;;;;;;6.63;1.85;;;27.00;61.60;;;;;;5030574;28;20041;-63
2022/09/06 11:52:54;;;;;;;5.63;1.80;;;27.00;62.00;;;;;;5038040;28;20048;-63
2022/09/06 11:55:28;;;;;;;;;;;27.00;61.80;;;;;;5037029;28;20394;-63
2022/09/06 11:57:56;;;;;;;4.82;1.92;;;27.00;61.00;;;;;;5033062;28;20427;-63
2022/09/06 12:00:23;;;;;;;5.63;1.80;;;27.10;62.70;;;;;;5031176;28;20561;-63
2022/09/06 12:02:50;;;;;;;4.10;1.80;;;27.00;61.90;;;;;;5032002;28;20037;-64
2022/09/06 12:05:30;;;;;;;9.45;2.60;;;27.00;61.60;;;;;;5032648;28;20033;-65
2022/09/06 12:08:31;;;;;;;6.93;2.13;;;26.90;61.50;;;;;;5033668;28;20072;-64
2022/09/06 12:11:19;;;;;;;8.23;2.22;;;26.90;61.10;;;;;;5032687;28;20029;-63
2022/09/06 12:13:45;;;;;;;5.53;1.80;;;26.90;60.70;;;;;;5030310;28;20037;-63
2022/09/06 12:16:12;;;;;;;3.08;1.70;;;26.80;60.90;;;;;;5030743;28;20033;-63
2022/09/06 12:18:46;;;;;;;3.72;1.90;;;26.80;61.00;;;;;;5032049;28;20056;-64
2022/09/06 12:21:41;;;;;;;5.07;1.80;;;26.80;60.60;;;;;;5026087;28;20030;-61
2022/09/06 12:24:08;;;;;;;;;;;26.80;60.90;;;;;;5012494;28;20063;-62
2022/09/06 12:26:51;;;;;;;7.20;1.90;;;26.80;62.60;;;;;;5013224;28;19975;-63
2022/09/06 12:29:25;;;;;;;6.60;1.83;;;26.70;61.60;;;;;;5013925;28;20041;-63
2022/09/06 12:32:00;;;;;;;7.47;2.15;;;26.70;61.90;;;;;;5011807;28;20417;-63
2022/09/06 12:34:29;;;;;;;10.60;2.58;;;26.70;62.20;;;;;;5015751;28;20072;-62
2022/09/06 12:37:02;;;;;;;7.75;2.00;;;26.70;62.40;;;;;;5013498;28;21786;-63
2022/09/06 12:39:28;;;;;;;7.55;2.20;;;26.70;63.10;;;;;;5015082;28;20030;-63
2022/09/06 12:41:58;;;;;;;7.55;2.33;;;26.70;63.10;;;;;;5013568;28;20516;-63
2022/09/06 12:44:41;;;;;;;9.85;2.38;;;26.80;63.10;;;;;;5009962;28;20041;-64
2022/09/06 12:47:15;;;;;;;10.10;2.30;;;26.70;62.70;;;;;;5017428;28;20108;-63
2022/09/06 12:49:41;;;;;;;5.95;2.20;;;26.80;63.10;;;;;;5014994;28;20034;-63
2022/09/06 12:52:15;;;;;;;8.57;2.00;;;26.80;62.70;;;;;;5012874;28;20032;-65
2022/09/06 12:54:49;;;;;;;7.35;1.88;;;26.80;62.20;;;;;;5010509;28;20120;-65
2022/09/06 12:57:22;;;;;;;11.52;1.80;;;26.80;62.20;;;;;;5012327;28;20030;-63
2022/09/06 12:59:54;;;;;;;6.70;1.97;;;26.70;62.40;;;;;;5010256;28;20053;-64
2022/09/06 13:02:37;;;;;;;11.63;3.10;;;26.70;62.00;;;;;;5013423;28;20142;-63
2022/09/06 13:05:10;;;;;;;9.02;1.95;;;26.70;62.20;;;;;;5033300;28;20040;-62
2022/09/06 13:07:41;;;;;;;8.18;1.95;;;26.70;62.70;;;;;;5034654;28;20621;-62